createdAt,value
2023-09-06T00:01:57.040Z,17.05
2023-09-06T00:04:24.411Z,16.98
2023-09-06T00:06:51.135Z,16.93
2023-09-06T00:09:17.869Z,16.79
2023-09-06T00:11:44.440Z,16.62
2023-09-06T00:14:11.116Z,16.62
2023-09-06T00:16:39.149Z,16.60
2023-09-06T00:19:06.224Z,16.50
2023-09-06T00:21:33.984Z,16.57
2023-09-06T00:24:03.727Z,16.53
2023-09-06T00:26:30.343Z,16.53
2023-09-06T00:28:56.848Z,16.47
2023-09-06T00:31:23.511Z,16.37
2023-09-06T00:33:50.185Z,16.36
2023-09-06T00:36:18.761Z,16.35
2023-09-06T00:38:45.285Z,16.39
2023-09-06T00:41:11.854Z,16.41
2023-09-06T00:43:38.404Z,16.40
2023-09-06T00:46:08.072Z,16.46
2023-09-06T00:48:40.085Z,16.41
2023-09-06T00:51:07.621Z,16.40
2023-09-06T00:53:34.385Z,16.33
2023-09-06T00:56:05.737Z,16.29
2023-09-06T00:58:33.871Z,16.29
2023-09-06T01:01:00.478Z,16.24
2023-09-06T01:03:27.885Z,16.09
2023-09-06T01:06:27.058Z,15.91
2023-09-06T01:08:58.273Z,15.89
2023-09-06T01:11:27.356Z,15.90
2023-09-06T01:14:01.280Z,15.84
2023-09-06T01:16:38.478Z,15.86
2023-09-06T01:19:10.806Z,15.92
2023-09-06T01:21:48.970Z,15.81
2023-09-06T01:24:17.652Z,15.89
2023-09-06T01:26:46.083Z,15.94
2023-09-06T01:29:13.047Z,15.90
2023-09-06T01:31:41.076Z,15.84
2023-09-06T01:34:08.988Z,15.75
2023-09-06T01:36:35.695Z,15.72
2023-09-06T01:39:02.329Z,15.70
2023-09-06T01:41:28.895Z,15.72
2023-09-06T01:43:57.547Z,15.73
2023-09-06T01:46:24.478Z,15.69
2023-09-06T01:48:52.543Z,15.68
2023-09-06T01:51:20.544Z,15.54
2023-09-06T01:53:50.109Z,15.34
2023-09-06T01:56:17.864Z,15.21
2023-09-06T01:58:45.419Z,15.19
2023-09-06T02:01:12.171Z,15.18
2023-09-06T02:03:39.943Z,15.27
2023-09-06T02:06:07.634Z,15.37
2023-09-06T02:08:34.703Z,15.45
2023-09-06T02:11:03.851Z,15.50
2023-09-06T02:13:31.708Z,15.47
2023-09-06T02:16:00.514Z,15.40
2023-09-06T02:18:30.486Z,15.35
2023-09-06T02:20:58.395Z,15.36
2023-09-06T02:23:25.277Z,15.39
2023-09-06T02:25:52.857Z,15.36
2023-09-06T02:28:19.751Z,15.34
2023-09-06T02:30:46.188Z,15.22
2023-09-06T02:33:12.859Z,15.21
2023-09-06T02:35:39.592Z,15.18
2023-09-06T02:38:06.122Z,15.20
2023-09-06T02:40:36.913Z,15.19
2023-09-06T02:43:04.103Z,15.19
2023-09-06T02:45:31.804Z,15.14
2023-09-06T02:47:58.371Z,15.14
2023-09-06T02:50:25.242Z,15.15
2023-09-06T02:52:53.034Z,15.11
2023-09-06T02:55:20.100Z,15.04
2023-09-06T02:57:46.717Z,15.07
2023-09-06T03:03:02.082Z,15.05
2023-09-06T03:05:30.609Z,14.99
2023-09-06T03:08:03.815Z,14.95
2023-09-06T03:10:30.960Z,14.88
2023-09-06T03:12:59.034Z,14.83
2023-09-06T03:15:27.779Z,14.75
2023-09-06T03:17:54.939Z,14.75
2023-09-06T03:20:21.760Z,14.73
2023-09-06T03:22:49.543Z,14.72
2023-09-06T03:25:17.187Z,14.65
2023-09-06T03:27:43.850Z,14.68
2023-09-06T03:30:12.816Z,14.72
2023-09-06T03:32:43.437Z,14.73
2023-09-06T03:35:10.575Z,14.67
2023-09-06T03:37:37.027Z,14.61
2023-09-06T03:40:04.155Z,14.62
2023-09-06T03:42:33.850Z,14.59
2023-09-06T03:45:00.385Z,14.58
2023-09-06T03:47:27.136Z,14.60
2023-09-06T03:49:56.763Z,14.62
2023-09-06T03:52:23.295Z,14.67
2023-09-06T03:54:52.820Z,14.72
2023-09-06T03:57:19.370Z,14.76
2023-09-06T03:59:46.276Z,14.72
2023-09-06T04:02:16.065Z,14.62
2023-09-06T04:04:42.759Z,14.59
2023-09-06T04:09:36.824Z,14.58
2023-09-06T04:12:04.074Z,14.59
2023-09-06T04:14:30.688Z,14.61
2023-09-06T04:16:57.824Z,14.64
2023-09-06T04:19:24.675Z,14.65
2023-09-06T04:21:51.600Z,14.63
2023-09-06T04:24:18.206Z,14.67
2023-09-06T04:26:45.073Z,14.72
2023-09-06T04:29:12.026Z,14.71
2023-09-06T04:31:40.244Z,14.77
2023-09-06T04:34:07.882Z,14.79
2023-09-06T04:36:36.256Z,14.81
2023-09-06T04:39:05.798Z,14.87
2023-09-06T04:41:34.747Z,14.84
2023-09-06T04:44:01.420Z,14.88
2023-09-06T04:46:29.599Z,14.91
2023-09-06T04:48:59.208Z,14.87
2023-09-06T04:51:25.837Z,14.91
2023-09-06T04:53:53.275Z,14.96
2023-09-06T04:56:20.987Z,14.97
2023-09-06T04:58:47.553Z,15.04
2023-09-06T05:01:17.136Z,15.10
2023-09-06T05:03:45.186Z,15.18
2023-09-06T05:06:12.857Z,15.22
2023-09-06T05:08:39.429Z,15.26
2023-09-06T05:11:06.114Z,15.34
2023-09-06T05:16:02.224Z,15.45
2023-09-06T05:18:34.065Z,15.49
2023-09-06T05:21:00.963Z,15.52
2023-09-06T05:23:27.603Z,15.58
2023-09-06T05:25:54.204Z,15.60
2023-09-06T05:28:22.015Z,15.72
2023-09-06T05:30:48.804Z,15.77
2023-09-06T05:33:15.664Z,15.80
2023-09-06T05:35:43.718Z,15.80
2023-09-06T05:38:10.813Z,15.84
2023-09-06T05:40:37.800Z,15.85
2023-09-06T05:43:05.730Z,15.93
2023-09-06T05:45:32.624Z,15.85
2023-09-06T05:48:00.281Z,15.87
2023-09-06T05:50:26.956Z,15.93
2023-09-06T05:52:54.326Z,16.03
2023-09-06T05:55:21.496Z,16.14
2023-09-06T05:57:48.106Z,16.24
2023-09-06T06:00:15.071Z,16.39
2023-09-06T06:02:41.943Z,16.50
2023-09-06T06:05:08.963Z,16.64
2023-09-06T06:07:36.475Z,16.78
2023-09-06T06:10:03.607Z,16.94
2023-09-06T06:12:30.239Z,17.10
2023-09-06T06:14:57.273Z,17.42
2023-09-06T06:19:51.683Z,18.51
2023-09-06T06:22:18.353Z,19.00
2023-09-06T06:24:47.817Z,19.47
2023-09-06T06:27:14.736Z,19.83
2023-09-06T06:29:43.023Z,20.18
2023-09-06T06:32:10.119Z,20.44
2023-09-06T06:34:36.935Z,20.69
2023-09-06T06:37:03.449Z,20.73
2023-09-06T06:39:31.535Z,20.94
2023-09-06T06:41:58.074Z,20.90
2023-09-06T06:44:24.880Z,20.84
2023-09-06T06:46:51.763Z,20.90
2023-09-06T06:49:18.883Z,21.24
2023-09-06T06:51:45.727Z,21.42
2023-09-06T06:54:13.211Z,21.38
2023-09-06T06:56:40.265Z,21.24
2023-09-06T06:59:08.535Z,21.62
2023-09-06T07:01:36.702Z,21.84
2023-09-06T07:04:04.384Z,21.94
2023-09-06T07:06:31.708Z,22.29
2023-09-06T07:08:58.533Z,22.66
2023-09-06T07:11:26.130Z,22.89
2023-09-06T07:13:52.835Z,22.60
2023-09-06T07:16:21.209Z,22.89
2023-09-06T07:18:48.535Z,23.25
2023-09-06T07:21:16.234Z,23.43
2023-09-06T07:23:43.303Z,23.64
2023-09-06T07:26:10.926Z,23.97
2023-09-06T07:28:39.769Z,24.18
2023-09-06T07:31:08.057Z,24.25
2023-09-06T07:36:01.449Z,24.08
2023-09-06T07:38:29.930Z,24.44
2023-09-06T07:41:08.478Z,24.84
2023-09-06T07:43:38.177Z,24.87
2023-09-06T07:46:09.537Z,24.85
2023-09-06T07:48:37.859Z,24.11
2023-09-06T07:51:06.845Z,24.40
2023-09-06T07:53:34.165Z,24.52
2023-09-06T07:56:01.575Z,24.24
2023-09-06T07:58:30.806Z,23.96
2023-09-06T08:03:29.058Z,23.54
2023-09-06T08:05:56.194Z,23.42
2023-09-06T08:08:23.067Z,23.56
2023-09-06T08:10:52.614Z,23.62
2023-09-06T08:13:19.761Z,23.65
2023-09-06T08:15:46.883Z,23.73
2023-09-06T08:18:13.576Z,24.07
2023-09-06T08:20:40.239Z,24.23
2023-09-06T08:23:07.684Z,24.19
2023-09-06T08:25:35.021Z,24.62
2023-09-06T08:28:01.600Z,24.87
2023-09-06T08:30:29.683Z,25.12
2023-09-06T08:32:56.487Z,25.08
2023-09-06T08:35:23.833Z,25.09
2023-09-06T08:37:50.994Z,24.96
2023-09-06T08:40:18.008Z,25.25
2023-09-06T08:42:45.778Z,25.68
2023-09-06T08:45:17.680Z,25.93
2023-09-06T08:47:45.090Z,26.11
2023-09-06T08:50:12.118Z,25.73
2023-09-06T08:52:41.535Z,25.98
2023-09-06T08:55:10.162Z,25.80
2023-09-06T08:57:40.455Z,26.29
2023-09-06T09:00:08.273Z,26.42
2023-09-06T09:02:39.756Z,26.03
2023-09-06T09:05:19.742Z,26.32
2023-09-06T09:07:58.452Z,26.82
2023-09-06T09:10:25.035Z,26.73
2023-09-06T09:12:52.839Z,26.24
2023-09-06T09:15:23.665Z,26.86
2023-09-06T09:20:22.356Z,26.82
2023-09-06T09:22:49.465Z,26.87
2023-09-06T09:25:19.441Z,27.42
2023-09-06T09:27:47.222Z,27.65
2023-09-06T09:30:14.455Z,27.92
2023-09-06T09:32:41.633Z,27.75
2023-09-06T09:35:12.823Z,27.70
2023-09-06T09:37:51.992Z,27.86
2023-09-06T09:40:31.629Z,28.27
2023-09-06T09:43:05.191Z,28.73
2023-09-06T09:45:45.648Z,28.54
2023-09-06T09:48:12.767Z,27.52
2023-09-06T09:50:40.478Z,28.05
2023-09-06T09:53:21.066Z,28.63
2023-09-06T09:55:50.242Z,28.80
2023-09-06T09:58:17.987Z,27.91
2023-09-06T10:00:45.317Z,27.67
2023-09-06T10:03:14.056Z,28.02
2023-09-06T10:05:46.812Z,27.82
2023-09-06T10:08:15.802Z,27.89
2023-09-06T10:10:42.526Z,28.12
2023-09-06T10:13:10.653Z,28.05
2023-09-06T10:15:39.009Z,28.12
2023-09-06T10:18:07.596Z,27.74
2023-09-06T10:20:38.334Z,28.22
2023-09-06T10:23:07.686Z,28.33
2023-09-06T10:25:45.889Z,28.15
2023-09-06T10:28:14.540Z,27.81
2023-09-06T10:30:44.002Z,28.29
2023-09-06T10:33:31.956Z,28.95
2023-09-06T10:36:00.383Z,29.68
2023-09-06T10:38:27.385Z,28.93
2023-09-06T10:41:20.628Z,28.75
2023-09-06T10:43:50.429Z,29.20
2023-09-06T10:46:21.126Z,28.97
2023-09-06T10:49:15.497Z,29.01
2023-09-06T10:52:05.935Z,28.98
2023-09-06T10:54:36.981Z,29.04
2023-09-06T10:57:06.488Z,29.21
2023-09-06T10:59:46.484Z,29.01
2023-09-06T11:02:28.762Z,29.43
2023-09-06T11:05:11.551Z,30.08
2023-09-06T11:07:50.434Z,29.63
2023-09-06T11:10:23.013Z,29.48
2023-09-06T11:12:49.662Z,29.71
2023-09-06T11:15:16.628Z,28.83
2023-09-06T11:17:45.306Z,28.91
2023-09-06T11:20:15.701Z,29.07
2023-09-06T11:22:57.961Z,29.28
2023-09-06T11:25:26.645Z,29.11
2023-09-06T11:27:55.961Z,29.18
2023-09-06T11:30:28.254Z,29.46
2023-09-06T11:32:58.366Z,29.36
2023-09-06T11:35:31.839Z,29.23
2023-09-06T11:38:00.217Z,28.90
2023-09-06T11:40:28.622Z,28.72
2023-09-06T11:43:03.107Z,28.74
2023-09-06T11:45:30.265Z,28.58
2023-09-06T11:47:57.077Z,28.55
2023-09-06T11:50:24.130Z,28.37
2023-09-06T11:52:58.599Z,28.76
2023-09-06T11:55:26.782Z,28.68
2023-09-06T11:57:53.532Z,28.95
2023-09-06T12:00:20.858Z,29.37
2023-09-06T12:02:47.634Z,29.40
2023-09-06T12:05:14.990Z,29.28
2023-09-06T12:07:41.680Z,29.08
2023-09-06T12:10:08.739Z,28.93
2023-09-06T12:12:41.344Z,28.80
2023-09-06T12:15:20.980Z,28.73
2023-09-06T12:17:51.368Z,28.71
2023-09-06T12:20:22.137Z,28.69
2023-09-06T12:22:48.796Z,29.15
2023-09-06T12:25:17.215Z,29.27
2023-09-06T12:27:44.030Z,29.07
2023-09-06T12:30:12.862Z,28.98
2023-09-06T12:32:40.805Z,29.36
2023-09-06T12:35:09.081Z,29.28
2023-09-06T12:37:37.189Z,28.98
2023-09-06T12:40:08.603Z,28.99
2023-09-06T12:42:35.200Z,28.87
2023-09-06T12:45:01.764Z,28.86
2023-09-06T12:47:28.425Z,29.12
2023-09-06T12:49:56.446Z,29.54
2023-09-06T12:52:24.529Z,28.89
2023-09-06T12:54:51.530Z,28.90
2023-09-06T12:57:18.161Z,28.85
2023-09-06T12:59:44.719Z,29.00
2023-09-06T13:02:11.358Z,28.59
2023-09-06T13:04:38.005Z,28.41
2023-09-06T13:07:04.796Z,28.12
2023-09-06T13:09:31.309Z,28.22
2023-09-06T13:11:57.892Z,28.30
2023-09-06T13:14:24.504Z,28.26
2023-09-06T13:16:51.173Z,27.81
2023-09-06T13:19:18.255Z,27.90
2023-09-06T13:21:44.844Z,28.00
2023-09-06T13:24:11.518Z,27.88
2023-09-06T13:26:38.270Z,27.50
2023-09-06T13:29:05.983Z,27.30
2023-09-06T13:31:32.730Z,27.46
2023-09-06T13:34:00.345Z,27.47
2023-09-06T13:38:52.359Z,27.44
2023-09-06T13:41:18.949Z,27.18
2023-09-06T13:43:45.855Z,27.23
2023-09-06T13:46:13.064Z,27.12
2023-09-06T13:48:39.802Z,27.12
2023-09-06T13:51:06.490Z,27.10
2023-09-06T13:53:33.463Z,27.17
2023-09-06T13:56:00.608Z,27.36
2023-09-06T13:58:27.607Z,27.42
2023-09-06T14:00:55.337Z,27.27
2023-09-06T14:03:22.628Z,27.32
2023-09-06T14:05:50.671Z,27.33
2023-09-06T14:08:17.565Z,27.23
2023-09-06T14:10:44.265Z,27.35
2023-09-06T14:13:10.803Z,27.52
2023-09-06T14:15:37.417Z,27.41
2023-09-06T14:18:04.498Z,27.42
2023-09-06T14:20:31.169Z,27.34
2023-09-06T14:22:57.751Z,27.44
2023-09-06T14:25:24.643Z,27.37
2023-09-06T14:27:51.286Z,27.41
2023-09-06T14:30:18.873Z,27.48
2023-09-06T14:32:45.843Z,27.58
2023-09-06T14:35:12.493Z,27.63
2023-09-06T14:37:39.257Z,27.64
2023-09-06T14:40:07.195Z,27.51
2023-09-06T14:42:33.806Z,27.54
2023-09-06T14:45:01.596Z,27.62
2023-09-06T14:47:28.784Z,27.57
2023-09-06T14:49:57.281Z,27.76
2023-09-06T14:52:24.015Z,27.66
2023-09-06T14:54:53.606Z,27.60
2023-09-06T14:57:20.386Z,27.69
2023-09-06T14:59:47.008Z,27.83
2023-09-06T15:02:14.137Z,27.82
2023-09-06T15:04:40.719Z,27.56
2023-09-06T15:07:08.273Z,27.43
2023-09-06T15:09:35.669Z,27.24
2023-09-06T15:14:49.950Z,27.17
2023-09-06T15:17:22.700Z,27.17
2023-09-06T15:19:49.312Z,27.06
2023-09-06T15:22:32.980Z,26.94
2023-09-06T15:25:06.415Z,26.87
2023-09-06T15:27:33.199Z,26.74
2023-09-06T15:30:01.096Z,26.73
2023-09-06T15:32:28.319Z,26.65
2023-09-06T15:34:55.869Z,26.67
2023-09-06T15:37:22.487Z,26.63
2023-09-06T15:39:49.271Z,26.58
2023-09-06T15:42:16.674Z,26.52
2023-09-06T15:44:43.321Z,26.53
2023-09-06T15:47:10.024Z,26.51
2023-09-06T15:49:36.760Z,26.45
2023-09-06T15:52:03.797Z,26.30
2023-09-06T15:54:30.308Z,26.27
2023-09-06T15:56:57.018Z,26.20
2023-09-06T15:59:25.148Z,26.18
2023-09-06T16:01:52.312Z,26.25
2023-09-06T16:04:19.115Z,26.14
2023-09-06T16:06:45.769Z,26.17
2023-09-06T16:09:12.821Z,26.09
2023-09-06T16:11:40.076Z,26.01
2023-09-06T16:14:06.775Z,25.99
2023-09-06T16:16:34.129Z,25.99
2023-09-06T16:19:01.447Z,25.91
2023-09-06T16:21:28.325Z,25.86
2023-09-06T16:23:54.871Z,25.86
2023-09-06T16:26:21.543Z,25.78
2023-09-06T16:28:51.281Z,25.77
2023-09-06T16:31:18.419Z,25.66
2023-09-06T16:33:45.075Z,25.63
2023-09-06T16:36:12.957Z,25.50
2023-09-06T16:38:40.840Z,25.46
2023-09-06T16:43:32.750Z,25.45
2023-09-06T16:45:59.432Z,25.45
2023-09-06T16:48:27.948Z,25.45
2023-09-06T16:50:57.911Z,25.44
2023-09-06T16:53:24.528Z,25.40
2023-09-06T16:55:51.230Z,25.35
2023-09-06T16:58:18.343Z,25.32
2023-09-06T17:00:45.130Z,25.26
2023-09-06T17:03:11.912Z,25.18
2023-09-06T17:05:38.817Z,25.06
2023-09-06T17:08:06.018Z,24.94
2023-09-06T17:10:37.924Z,24.90
2023-09-06T17:13:07.393Z,24.81
2023-09-06T17:15:35.077Z,24.74
2023-09-06T17:18:01.746Z,24.67
2023-09-06T17:20:28.418Z,24.59
2023-09-06T17:22:55.542Z,24.52
2023-09-06T17:25:22.432Z,24.43
2023-09-06T17:27:49.079Z,24.35
2023-09-06T17:30:15.650Z,24.28
2023-09-06T17:33:00.368Z,24.20
2023-09-06T17:35:26.900Z,24.10
2023-09-06T17:37:53.598Z,24.00
2023-09-06T17:40:20.108Z,23.90
2023-09-06T17:42:46.593Z,23.79
2023-09-06T17:45:13.226Z,23.65
2023-09-06T17:47:40.643Z,23.61
2023-09-06T17:50:07.687Z,23.52
2023-09-06T17:52:34.194Z,23.47
2023-09-06T17:55:00.706Z,23.42
2023-09-06T17:57:27.319Z,23.32
2023-09-06T17:59:53.879Z,23.25
2023-09-06T18:02:20.567Z,23.15
2023-09-06T18:04:48.878Z,23.06
2023-09-06T18:07:16.978Z,22.97
2023-09-06T18:09:43.860Z,22.89
2023-09-06T18:12:11.883Z,22.81
2023-09-06T18:14:38.516Z,22.77
2023-09-06T18:17:05.217Z,22.72
2023-09-06T18:19:31.808Z,22.64
2023-09-06T18:21:58.370Z,22.56
2023-09-06T18:24:25.030Z,22.45
2023-09-06T18:27:05.908Z,22.35
2023-09-06T18:29:34.914Z,22.23
2023-09-06T18:32:01.512Z,22.16
2023-09-06T18:34:28.067Z,22.09
2023-09-06T18:36:54.663Z,22.00
2023-09-06T18:39:21.154Z,21.96
2023-09-06T18:41:51.983Z,21.87
2023-09-06T18:44:18.596Z,21.81
2023-09-06T18:46:45.611Z,21.71
2023-09-06T18:49:12.546Z,21.63
2023-09-06T18:51:39.525Z,21.54
2023-09-06T18:54:06.189Z,21.46
2023-09-06T18:56:33.109Z,21.41
2023-09-06T18:58:59.666Z,21.35
2023-09-06T19:01:26.803Z,21.29
2023-09-06T19:03:53.466Z,21.22
2023-09-06T19:06:20.028Z,21.13
2023-09-06T19:08:46.586Z,21.03
2023-09-06T19:11:13.317Z,20.95
2023-09-06T19:13:39.938Z,20.87
2023-09-06T19:16:07.573Z,20.83
2023-09-06T19:18:34.501Z,20.79
2023-09-06T19:21:01.537Z,20.74
2023-09-06T19:23:28.188Z,20.72
2023-09-06T19:25:54.747Z,20.67
2023-09-06T19:28:25.207Z,20.58
2023-09-06T19:30:59.527Z,20.52
2023-09-06T19:33:27.386Z,20.42
2023-09-06T19:35:56.656Z,20.22
2023-09-06T19:38:24.916Z,20.23
2023-09-06T19:40:52.148Z,20.24
2023-09-06T19:43:18.851Z,20.23
2023-09-06T19:45:45.552Z,20.17
2023-09-06T19:48:13.128Z,20.11
2023-09-06T19:50:39.821Z,20.10
2023-09-06T19:53:06.426Z,20.03
2023-09-06T19:55:36.122Z,19.97
2023-09-06T19:58:03.368Z,19.88
2023-09-06T20:00:29.959Z,19.83
2023-09-06T20:02:56.688Z,19.84
2023-09-06T20:05:23.651Z,19.82
2023-09-06T20:07:50.272Z,19.73
2023-09-06T20:10:17.681Z,19.70
2023-09-06T20:12:44.365Z,19.64
2023-09-06T20:15:13.400Z,19.53
2023-09-06T20:17:41.472Z,19.53
2023-09-06T20:20:08.987Z,19.51
2023-09-06T20:22:35.566Z,19.52
2023-09-06T20:25:02.145Z,19.39
2023-09-06T20:27:28.742Z,19.40
2023-09-06T20:29:56.271Z,19.40
2023-09-06T20:32:26.050Z,19.39
2023-09-06T20:34:52.596Z,19.38
2023-09-06T20:37:19.125Z,19.32
2023-09-06T20:39:45.782Z,19.28
2023-09-06T20:42:12.470Z,19.25
2023-09-06T20:47:04.473Z,19.10
2023-09-06T20:49:32.038Z,19.05
2023-09-06T20:51:58.693Z,18.98
2023-09-06T20:54:25.350Z,18.94
2023-09-06T20:56:51.910Z,18.82
2023-09-06T20:59:19.871Z,18.86
2023-09-06T21:01:47.019Z,18.82
2023-09-06T21:04:13.994Z,18.81
2023-09-06T21:06:40.795Z,18.74
2023-09-06T21:09:08.619Z,18.75
2023-09-06T21:11:38.627Z,18.73
2023-09-06T21:14:05.216Z,18.63
2023-09-06T21:16:31.749Z,18.63
2023-09-06T21:18:58.385Z,18.62
2023-09-06T21:21:25.270Z,18.62
2023-09-06T21:23:52.080Z,18.56
2023-09-06T21:26:18.974Z,18.50
2023-09-06T21:28:45.488Z,18.42
2023-09-06T21:31:12.123Z,18.33
2023-09-06T21:33:41.683Z,18.29
2023-09-06T21:36:08.448Z,18.27
2023-09-06T21:38:36.080Z,18.21
2023-09-06T21:41:02.729Z,18.20
2023-09-06T21:43:29.581Z,18.17
2023-09-06T21:46:03.190Z,18.14
2023-09-06T21:48:30.775Z,18.09
2023-09-06T21:51:10.238Z,18.08
2023-09-06T21:53:37.056Z,18.04
2023-09-06T21:56:03.716Z,18.02
2023-09-06T21:58:31.474Z,18.00
2023-09-06T22:00:58.244Z,18.00
2023-09-06T22:03:24.931Z,17.94
2023-09-06T22:05:51.531Z,17.98
2023-09-06T22:08:18.238Z,17.93
2023-09-06T22:10:44.809Z,17.90
2023-09-06T22:13:11.520Z,17.82
2023-09-06T22:15:38.199Z,17.77
2023-09-06T22:18:04.916Z,17.77
2023-09-06T22:20:31.560Z,17.75
2023-09-06T22:22:58.640Z,17.72
2023-09-06T22:25:25.842Z,17.72
2023-09-06T22:27:52.427Z,17.65
2023-09-06T22:30:19.023Z,17.63
2023-09-06T22:32:45.591Z,17.62
2023-09-06T22:35:12.273Z,17.54
2023-09-06T22:40:07.863Z,17.51
2023-09-06T22:42:36.727Z,17.45
2023-09-06T22:45:03.418Z,17.36
2023-09-06T22:47:30.239Z,17.35
2023-09-06T22:49:59.934Z,17.35
2023-09-06T22:52:26.555Z,17.36
2023-09-06T22:54:53.219Z,17.24
2023-09-06T22:57:19.850Z,17.23
2023-09-06T22:59:46.396Z,17.07
2023-09-06T23:02:13.001Z,16.93
2023-09-06T23:04:39.648Z,16.94
2023-09-06T23:07:06.599Z,16.98
2023-09-06T23:09:34.023Z,17.02
2023-09-06T23:12:00.761Z,17.01
2023-09-06T23:14:27.907Z,16.98
2023-09-06T23:16:55.318Z,16.99
2023-09-06T23:19:22.987Z,16.96
2023-09-06T23:21:50.883Z,16.91
2023-09-06T23:24:17.473Z,16.92
2023-09-06T23:26:44.124Z,16.86
2023-09-06T23:29:10.698Z,16.85
2023-09-06T23:31:37.369Z,16.82
2023-09-06T23:34:04.079Z,16.76
2023-09-06T23:36:31.005Z,16.65
2023-09-06T23:38:57.555Z,16.61
2023-09-06T23:41:25.790Z,16.59
2023-09-06T23:43:53.496Z,16.58
2023-09-06T23:46:20.161Z,16.47
2023-09-06T23:48:46.809Z,16.49
2023-09-06T23:51:13.342Z,16.48
2023-09-06T23:53:41.410Z,16.45
2023-09-06T23:56:08.222Z,16.50
2023-09-06T23:58:35.221Z,16.36
